sensor_id;sensor_type;location;lat;lon;timestamp;pressure;altitude;pressure_sealevel;temperature;humidity
55077;BME280;40971;44.702;11.030;2022-11-15T00:00:48;101859.91;;;6.18;100.00
55077;BME280;40971;44.702;11.030;2022-11-15T00:03:15;101864.28;;;6.16;100.00
55077;BME280;40971;44.702;11.030;2022-11-15T00:05:41;101859.31;;;6.02;100.00
55077;BME280;40971;44.702;11.030;2022-11-15T00:08:06;101859.34;;;6.01;100.00
55077;BME280;40971;44.702;11.030;2022-11-15T00:10:32;101866.41;;;5.93;100.00
55077;BME280;40971;44.702;11.030;2022-11-15T00:12:57;101861.50;;;5.74;100.00
55077;BME280;40971;44.702;11.030;2022-11-15T00:15:24;101858.06;;;5.71;100.00
55077;BME280;40971;44.702;11.030;2022-11-15T00:17:49;101827.94;;;5.64;100.00
55077;BME280;40971;44.702;11.030;2022-11-15T00:20:15;101851.09;;;5.76;100.00
55077;BME280;40971;44.702;11.030;2022-11-15T00:22:41;101792.03;;;5.41;100.00
55077;BME280;40971;44.702;11.030;2022-11-15T00:25:06;101849.69;;;5.57;100.00
55077;BME280;40971;44.702;11.030;2022-11-15T00:27:32;101828.16;;;5.50;100.00
55077;BME280;40971;44.702;11.030;2022-11-15T00:29:57;101771.59;;;5.24;100.00
55077;BME280;40971;44.702;11.030;2022-11-15T00:32:23;101838.28;;;5.65;100.00
55077;BME280;40971;44.702;11.030;2022-11-15T00:34:48;101815.44;;;5.35;100.00
55077;BME280;40971;44.702;11.030;2022-11-15T00:37:13;101833.59;;;5.33;100.00
55077;BME280;40971;44.702;11.030;2022-11-15T00:39:39;101829.41;;;5.26;100.00
55077;BME280;40971;44.702;11.030;2022-11-15T00:42:04;101780.44;;;5.09;100.00
55077;BME280;40971;44.702;11.030;2022-11-15T00:44:30;101816.78;;;5.02;100.00
55077;BME280;40971;44.702;11.030;2022-11-15T00:46:55;101813.28;;;5.06;100.00
55077;BME280;40971;44.702;11.030;2022-11-15T00:49:20;101824.53;;;5.02;100.00
55077;BME280;40971;44.702;11.030;2022-11-15T00:51:46;101829.69;;;5.05;100.00
55077;BME280;40971;44.702;11.030;2022-11-15T00:54:11;101830.50;;;5.08;100.00
55077;BME280;40971;44.702;11.030;2022-11-15T00:56:37;101832.19;;;5.11;100.00
55077;BME280;40971;44.702;11.030;2022-11-15T00:59:02;101833.00;;;5.14;100.00
55077;BME280;40971;44.702;11.030;2022-11-15T01:01:28;101758.34;;;4.82;100.00
55077;BME280;40971;44.702;11.030;2022-11-15T01:03:53;101824.47;;;5.08;100.00
55077;BME280;40971;44.702;11.030;2022-11-15T01:06:18;101807.25;;;5.05;100.00
55077;BME280;40971;44.702;11.030;2022-11-15T01:08:44;101768.88;;;4.72;100.00
55077;BME280;40971;44.702;11.030;2022-11-15T01:11:11;101755.28;;;4.56;100.00
55077;BME280;40971;44.702;11.030;2022-11-15T01:13:38;101817.69;;;4.98;100.00
55077;BME280;40971;44.702;11.030;2022-11-15T01:16:09;101792.84;;;4.84;100.00
55077;BME280;40971;44.702;11.030;2022-11-15T01:18:36;101809.06;;;4.97;100.00
55077;BME280;40971;44.702;11.030;2022-11-15T01:21:12;101825.19;;;5.18;100.00
55077;BME280;40971;44.702;11.030;2022-11-15T01:23:38;101772.94;;;4.90;100.00
55077;BME280;40971;44.702;11.030;2022-11-15T01:26:05;101815.03;;;5.05;100.00
55077;BME280;40971;44.702;11.030;2022-11-15T01:28:35;101804.00;;;4.91;100.00
55077;BME280;40971;44.702;11.030;2022-11-15T01:31:02;101800.06;;;4.60;100.00
55077;BME280;40971;44.702;11.030;2022-11-15T01:33:29;101735.69;;;4.35;100.00
55077;BME280;40971;44.702;11.030;2022-11-15T01:35:55;101804.09;;;4.82;100.00
55077;BME280;40971;44.702;11.030;2022-11-15T01:38:21;101798.84;;;4.90;100.00
55077;BME280;40971;44.702;11.030;2022-11-15T01:40:47;101816.13;;;4.84;100.00
55077;BME280;40971;44.702;11.030;2022-11-15T01:45:47;101784.28;;;4.81;100.00
55077;BME280;40971;44.702;11.030;2022-11-15T01:48:14;101797.09;;;4.90;100.00
55077;BME280;40971;44.702;11.030;2022-11-15T01:50:40;101794.53;;;4.89;100.00
55077;BME280;40971;44.702;11.030;2022-11-15T01:53:05;101761.25;;;4.61;100.00
55077;BME280;40971;44.702;11.030;2022-11-15T01:55:31;101779.13;;;4.79;100.00
55077;BME280;40971;44.702;11.030;2022-11-15T01:58:00;101786.59;;;4.99;100.00
55077;BME280;40971;44.702;11.030;2022-11-15T02:00:27;101761.09;;;4.73;100.00
55077;BME280;40971;44.702;11.030;2022-11-15T02:02:54;101763.50;;;4.84;100.00
55077;BME280;40971;44.702;11.030;2022-11-15T02:05:20;101795.94;;;5.11;100.00
55077;BME280;40971;44.702;11.030;2022-11-15T02:07:45;101783.03;;;5.08;100.00
55077;BME280;40971;44.702;11.030;2022-11-15T02:10:21;101779.47;;;5.15;100.00
55077;BME280;40971;44.702;11.030;2022-11-15T02:12:48;101777.78;;;5.14;100.00
55077;BME280;40971;44.702;11.030;2022-11-15T02:15:14;101737.56;;;4.90;100.00
55077;BME280;40971;44.702;11.030;2022-11-15T02:20:43;101713.16;;;5.06;100.00
55077;BME280;40971;44.702;11.030;2022-11-15T02:33:56;101741.59;;;5.62;100.00
55077;BME280;40971;44.702;11.030;2022-11-15T02:41:42;101745.34;;;5.46;100.00
55077;BME280;40971;44.702;11.030;2022-11-15T02:44:32;101759.91;;;5.51;100.00
55077;BME280;40971;44.702;11.030;2022-11-15T02:47:04;101749.56;;;5.50;100.00
55077;BME280;40971;44.702;11.030;2022-11-15T02:49:43;101695.47;;;5.31;100.00
55077;BME280;40971;44.702;11.030;2022-11-15T02:52:17;101737.19;;;5.67;100.00
55077;BME280;40971;44.702;11.030;2022-11-15T02:54:42;101734.53;;;5.70;100.00
55077;BME280;40971;44.702;11.030;2022-11-15T02:57:18;101727.78;;;5.61;100.00
55077;BME280;40971;44.702;11.030;2022-11-15T03:06:09;101724.53;;;5.50;100.00
55077;BME280;40971;44.702;11.030;2022-11-15T03:11:18;101713.72;;;5.25;100.00
55077;BME280;40971;44.702;11.030;2022-11-15T03:14:16;101680.34;;;5.07;100.00
55077;BME280;40971;44.702;11.030;2022-11-15T03:19:30;101719.91;;;5.15;100.00
55077;BME280;40971;44.702;11.030;2022-11-15T03:22:00;101701.38;;;4.86;100.00
55077;BME280;40971;44.702;11.030;2022-11-15T03:24:28;101699.88;;;4.72;100.00
55077;BME280;40971;44.702;11.030;2022-11-15T03:26:56;101706.59;;;4.82;100.00
55077;BME280;40971;44.702;11.030;2022-11-15T03:29:28;101725.03;;;4.61;100.00
55077;BME280;40971;44.702;11.030;2022-11-15T03:31:59;101720.28;;;4.26;100.00
55077;BME280;40971;44.702;11.030;2022-11-15T03:34:30;101721.84;;;4.41;100.00
55077;BME280;40971;44.702;11.030;2022-11-15T03:36:56;101712.34;;;4.41;100.00
55077;BME280;40971;44.702;11.030;2022-11-15T03:39:23;101737.31;;;4.44;100.00
55077;BME280;40971;44.702;11.030;2022-11-15T03:49:34;101606.88;;;3.99;100.00
55077;BME280;40971;44.702;11.030;2022-11-15T03:52:02;101681.25;;;4.44;100.00
55077;BME280;40971;44.702;11.030;2022-11-15T03:54:28;101647.03;;;4.26;100.00
55077;BME280;40971;44.702;11.030;2022-11-15T03:56:54;101713.38;;;4.28;100.00
55077;BME280;40971;44.702;11.030;2022-11-15T03:59:29;101697.84;;;4.28;100.00
55077;BME280;40971;44.702;11.030;2022-11-15T04:01:59;101666.94;;;4.17;100.00
55077;BME280;40971;44.702;11.030;2022-11-15T04:04:25;101696.91;;;4.34;100.00
55077;BME280;40971;44.702;11.030;2022-11-15T04:06:50;101697.94;;;4.22;100.00
55077;BME280;40971;44.702;11.030;2022-11-15T04:09:15;101696.88;;;4.38;100.00
55077;BME280;40971;44.702;11.030;2022-11-15T04:11:41;101637.06;;;3.97;100.00
55077;BME280;40971;44.702;11.030;2022-11-15T04:14:06;101697.44;;;4.60;100.00
55077;BME280;40971;44.702;11.030;2022-11-15T04:16:32;101679.38;;;4.57;100.00
55077;BME280;40971;44.702;11.030;2022-11-15T04:18:57;101687.00;;;4.66;100.00
55077;BME280;40971;44.702;11.030;2022-11-15T04:21:45;101706.69;;;4.76;100.00
55077;BME280;40971;44.702;11.030;2022-11-15T04:24:29;101703.34;;;4.71;100.00
55077;BME280;40971;44.702;11.030;2022-11-15T04:26:55;101694.88;;;4.59;100.00
55077;BME280;40971;44.702;11.030;2022-11-15T04:29:20;101687.19;;;4.51;100.00
55077;BME280;40971;44.702;11.030;2022-11-15T04:32:05;101698.06;;;4.77;100.00
55077;BME280;40971;44.702;11.030;2022-11-15T04:34:31;101694.31;;;4.97;100.00
55077;BME280;40971;44.702;11.030;2022-11-15T04:36:58;101672.84;;;4.90;100.00
55077;BME280;40971;44.702;11.030;2022-11-15T04:39:42;101627.66;;;4.56;100.00
55077;BME280;40971;44.702;11.030;2022-11-15T04:42:13;101697.59;;;5.08;100.00
55077;BME280;40971;44.702;11.030;2022-11-15T04:44:39;101673.28;;;5.17;100.00
55077;BME280;40971;44.702;11.030;2022-11-15T04:47:04;101689.38;;;5.34;100.00
55077;BME280;40971;44.702;11.030;2022-11-15T04:49:31;101683.06;;;5.50;100.00
55077;BME280;40971;44.702;11.030;2022-11-15T04:51:56;101681.22;;;5.58;100.00
55077;BME280;40971;44.702;11.030;2022-11-15T04:54:21;101685.25;;;5.73;100.00
55077;BME280;40971;44.702;11.030;2022-11-15T04:56:47;101692.09;;;5.77;100.00
55077;BME280;40971;44.702;11.030;2022-11-15T04:59:14;101689.59;;;5.72;100.00
55077;BME280;40971;44.702;11.030;2022-11-15T05:01:40;101676.53;;;5.77;100.00
55077;BME280;40971;44.702;11.030;2022-11-15T05:04:05;101693.50;;;5.95;100.00
55077;BME280;40971;44.702;11.030;2022-11-15T05:06:47;101603.03;;;5.35;100.00
55077;BME280;40971;44.702;11.030;2022-11-15T05:09:14;101681.81;;;5.71;100.00
55077;BME280;40971;44.702;11.030;2022-11-15T05:11:42;101681.06;;;5.66;100.00
55077;BME280;40971;44.702;11.030;2022-11-15T05:14:08;101686.16;;;5.70;100.00
55077;BME280;40971;44.702;11.030;2022-11-15T05:16:35;101687.66;;;5.82;100.00
55077;BME280;40971;44.702;11.030;2022-11-15T05:19:01;101665.09;;;5.87;100.00
55077;BME280;40971;44.702;11.030;2022-11-15T05:21:26;101637.84;;;5.66;100.00
55077;BME280;40971;44.702;11.030;2022-11-15T05:23:52;101678.81;;;5.95;100.00
55077;BME280;40971;44.702;11.030;2022-11-15T05:26:18;101682.09;;;6.03;100.00
55077;BME280;40971;44.702;11.030;2022-11-15T05:28:44;101677.53;;;6.16;100.00
55077;BME280;40971;44.702;11.030;2022-11-15T05:31:13;101627.84;;;5.94;100.00
55077;BME280;40971;44.702;11.030;2022-11-15T05:33:39;101620.03;;;5.96;100.00
55077;BME280;40971;44.702;11.030;2022-11-15T05:36:09;101657.59;;;6.18;100.00
55077;BME280;40971;44.702;11.030;2022-11-15T05:38:37;101665.44;;;6.15;100.00
55077;BME280;40971;44.702;11.030;2022-11-15T05:41:04;101659.41;;;6.15;100.00
55077;BME280;40971;44.702;11.030;2022-11-15T05:43:32;101669.97;;;6.04;100.00
55077;BME280;40971;44.702;11.030;2022-11-15T05:46:00;101613.50;;;5.75;100.00
55077;BME280;40971;44.702;11.030;2022-11-15T05:48:27;101657.03;;;6.02;100.00
55077;BME280;40971;44.702;11.030;2022-11-15T05:50:52;101630.72;;;5.78;100.00
55077;BME280;40971;44.702;11.030;2022-11-15T05:53:19;101650.38;;;5.91;100.00
55077;BME280;40971;44.702;11.030;2022-11-15T05:55:45;101663.19;;;5.98;100.00
55077;BME280;40971;44.702;11.030;2022-11-15T05:58:11;101651.28;;;5.88;100.00
55077;BME280;40971;44.702;11.030;2022-11-15T06:00:37;101613.50;;;5.75;100.00
55077;BME280;40971;44.702;11.030;2022-11-15T06:03:02;101646.00;;;5.94;100.00
55077;BME280;40971;44.702;11.030;2022-11-15T06:05:28;101635.50;;;5.99;100.00
55077;BME280;40971;44.702;11.030;2022-11-15T06:07:57;101618.44;;;5.89;100.00
55077;BME280;40971;44.702;11.030;2022-11-15T06:10:24;101658.38;;;6.23;100.00
55077;BME280;40971;44.702;11.030;2022-11-15T06:13:00;101669.75;;;6.16;100.00
55077;BME280;40971;44.702;11.030;2022-11-15T06:15:26;101654.63;;;5.95;100.00
55077;BME280;40971;44.702;11.030;2022-11-15T06:17:57;101653.84;;;5.91;100.00
55077;BME280;40971;44.702;11.030;2022-11-15T06:20:24;101665.78;;;5.98;100.00
55077;BME280;40971;44.702;11.030;2022-11-15T06:22:49;101624.72;;;5.76;100.00
55077;BME280;40971;44.702;11.030;2022-11-15T06:25:15;101663.19;;;5.98;100.00
55077;BME280;40971;44.702;11.030;2022-11-15T06:27:40;101659.72;;;5.99;100.00
55077;BME280;40971;44.702;11.030;2022-11-15T06:30:06;101666.28;;;6.16;100.00
55077;BME280;40971;44.702;11.030;2022-11-15T06:32:32;101576.34;;;5.76;100.00
55077;BME280;40971;44.702;11.030;2022-11-15T06:34:58;101683.00;;;6.44;100.00
55077;BME280;40971;44.702;11.030;2022-11-15T06:37:23;101669.19;;;6.42;100.00
55077;BME280;40971;44.702;11.030;2022-11-15T06:39:48;101656.47;;;6.30;100.00
55077;BME280;40971;44.702;11.030;2022-11-15T06:42:14;101622.44;;;6.05;100.00
55077;BME280;40971;44.702;11.030;2022-11-15T06:44:39;101625.06;;;6.02;100.00
55077;BME280;40971;44.702;11.030;2022-11-15T06:47:05;101677.13;;;6.34;100.00
55077;BME280;40971;44.702;11.030;2022-11-15T06:49:30;101655.66;;;6.28;100.00
55077;BME280;40971;44.702;11.030;2022-11-15T06:51:55;101684.38;;;6.60;100.00
55077;BME280;40971;44.702;11.030;2022-11-15T06:54:21;101637.75;;;6.16;100.00
55077;BME280;40971;44.702;11.030;2022-11-15T06:56:47;101643.75;;;6.18;100.00
55077;BME280;40971;44.702;11.030;2022-11-15T06:59:12;101688.94;;;6.49;100.00
55077;BME280;40971;44.702;11.030;2022-11-15T07:01:38;101683.81;;;6.46;100.00
55077;BME280;40971;44.702;11.030;2022-11-15T07:04:03;101675.78;;;6.58;100.00
55077;BME280;40971;44.702;11.030;2022-11-15T07:06:29;101666.31;;;6.54;100.00
55077;BME280;40971;44.702;11.030;2022-11-15T07:08:54;101622.06;;;6.23;100.00
55077;BME280;40971;44.702;11.030;2022-11-15T07:11:20;101603.34;;;6.09;100.00
55077;BME280;40971;44.702;11.030;2022-11-15T07:13:45;101668.78;;;6.60;100.00
55077;BME280;40971;44.702;11.030;2022-11-15T07:16:11;101643.16;;;6.47;100.00
55077;BME280;40971;44.702;11.030;2022-11-15T07:18:38;101657.53;;;6.61;100.00
55077;BME280;40971;44.702;11.030;2022-11-15T07:21:05;101681.50;;;6.71;100.00
55077;BME280;40971;44.702;11.030;2022-11-15T07:23:31;101624.19;;;6.43;100.00
55077;BME280;40971;44.702;11.030;2022-11-15T07:25:57;101688.06;;;6.89;100.00
55077;BME280;40971;44.702;11.030;2022-11-15T07:28:24;101691.19;;;7.02;100.00
55077;BME280;40971;44.702;11.030;2022-11-15T07:30:50;101632.81;;;6.82;100.00
55077;BME280;40971;44.702;11.030;2022-11-15T07:33:15;101614.63;;;6.82;100.00
55077;BME280;40971;44.702;11.030;2022-11-15T07:35:41;101682.66;;;7.32;100.00
55077;BME280;40971;44.702;11.030;2022-11-15T07:38:08;101685.13;;;7.37;100.00
55077;BME280;40971;44.702;11.030;2022-11-15T07:40:33;101665.16;;;7.39;100.00
55077;BME280;40971;44.702;11.030;2022-11-15T07:43:04;101683.84;;;7.53;100.00
55077;BME280;40971;44.702;11.030;2022-11-15T07:45:30;101678.59;;;7.56;100.00
55077;BME280;40971;44.702;11.030;2022-11-15T07:47:56;101622.97;;;7.29;100.00
55077;BME280;40971;44.702;11.030;2022-11-15T07:50:23;101685.16;;;7.69;100.00
55077;BME280;40971;44.702;11.030;2022-11-15T07:52:56;101630.53;;;7.38;100.00
55077;BME280;40971;44.702;11.030;2022-11-15T07:55:25;101681.38;;;7.48;100.00
55077;BME280;40971;44.702;11.030;2022-11-15T07:57:52;101674.91;;;7.31;100.00
55077;BME280;40971;44.702;11.030;2022-11-15T08:00:19;101682.22;;;7.49;100.00
55077;BME280;40971;44.702;11.030;2022-11-15T08:02:45;101648.91;;;7.31;100.00
55077;BME280;40971;44.702;11.030;2022-11-15T08:05:11;101690.88;;;7.49;100.00
55077;BME280;40971;44.702;11.030;2022-11-15T08:07:36;101663.31;;;7.44;100.00
55077;BME280;40971;44.702;11.030;2022-11-15T08:10:16;101620.66;;;7.18;100.00
55077;BME280;40971;44.702;11.030;2022-11-15T08:12:44;101676.19;;;7.48;100.00
55077;BME280;40971;44.702;11.030;2022-11-15T08:15:09;101606.94;;;7.13;100.00
55077;BME280;40971;44.702;11.030;2022-11-15T08:17:37;101618.34;;;7.08;100.00
55077;BME280;40971;44.702;11.030;2022-11-15T08:20:02;101608.28;;;6.94;100.00
55077;BME280;40971;44.702;11.030;2022-11-15T08:22:28;101672.31;;;7.31;100.00
55077;BME280;40971;44.702;11.030;2022-11-15T08:24:54;101661.22;;;7.24;100.00
55077;BME280;40971;44.702;11.030;2022-11-15T08:27:19;101672.94;;;7.39;100.00
55077;BME280;40971;44.702;11.030;2022-11-15T08:29:45;101660.72;;;7.44;100.00
55077;BME280;40971;44.702;11.030;2022-11-15T08:32:11;101663.19;;;7.48;100.00
55077;BME280;40971;44.702;11.030;2022-11-15T08:34:37;101646.00;;;7.43;100.00
55077;BME280;40971;44.702;11.030;2022-11-15T08:37:03;101635.44;;;7.49;100.00
55077;BME280;40971;44.702;11.030;2022-11-15T08:39:29;101662.41;;;7.77;100.00
55077;BME280;40971;44.702;11.030;2022-11-15T08:41:55;101656.22;;;7.81;100.00
55077;BME280;40971;44.702;11.030;2022-11-15T08:44:20;101664.59;;;7.93;100.00
55077;BME280;40971;44.702;11.030;2022-11-15T08:46:46;101660.13;;;7.98;100.00
55077;BME280;40971;44.702;11.030;2022-11-15T08:49:12;101652.13;;;8.04;100.00
55077;BME280;40971;44.702;11.030;2022-11-15T08:51:37;101657.06;;;8.13;100.00
55077;BME280;40971;44.702;11.030;2022-11-15T08:54:03;101673.75;;;8.37;100.00
55077;BME280;40971;44.702;11.030;2022-11-15T08:56:28;101665.03;;;8.38;100.00
55077;BME280;40971;44.702;11.030;2022-11-15T08:58:53;101651.38;;;8.30;100.00
55077;BME280;40971;44.702;11.030;2022-11-15T09:01:20;101664.47;;;8.56;100.00
55077;BME280;40971;44.702;11.030;2022-11-15T09:03:46;101666.22;;;8.57;100.00
55077;BME280;40971;44.702;11.030;2022-11-15T09:06:11;101644.75;;;8.49;100.00
55077;BME280;40971;44.702;11.030;2022-11-15T09:08:37;101671.69;;;8.76;100.00
55077;BME280;40971;44.702;11.030;2022-11-15T09:11:05;101664.38;;;8.87;100.00
55077;BME280;40971;44.702;11.030;2022-11-15T09:13:31;101679.06;;;8.90;100.00
55077;BME280;40971;44.702;11.030;2022-11-15T09:15:58;101608.16;;;8.54;100.00
55077;BME280;40971;44.702;11.030;2022-11-15T09:18:30;101654.06;;;8.84;100.00
55077;BME280;40971;44.702;11.030;2022-11-15T09:20:57;101668.69;;;8.88;100.00
55077;BME280;40971;44.702;11.030;2022-11-15T09:23:23;101668.34;;;8.99;100.00
55077;BME280;40971;44.702;11.030;2022-11-15T09:25:48;101618.59;;;8.80;100.00
55077;BME280;40971;44.702;11.030;2022-11-15T09:28:14;101665.19;;;9.16;100.00
55077;BME280;40971;44.702;11.030;2022-11-15T09:30:39;101603.56;;;8.88;100.00
55077;BME280;40971;44.702;11.030;2022-11-15T09:33:08;101662.38;;;9.22;100.00
55077;BME280;40971;44.702;11.030;2022-11-15T09:35:34;101649.28;;;9.23;100.00
55077;BME280;40971;44.702;11.030;2022-11-15T09:37:59;101605.31;;;9.14;100.00
55077;BME280;40971;44.702;11.030;2022-11-15T09:40:25;101654.38;;;9.53;100.00
55077;BME280;40971;44.702;11.030;2022-11-15T09:46:22;101661.56;;;9.71;100.00
55077;BME280;40971;44.702;11.030;2022-11-15T09:48:56;101666.41;;;9.57;100.00
55077;BME280;40971;44.702;11.030;2022-11-15T09:51:32;101621.00;;;9.38;100.00
55077;BME280;40971;44.702;11.030;2022-11-15T09:56:43;101656.84;;;9.57;100.00
55077;BME280;40971;44.702;11.030;2022-11-15T10:04:44;101613.06;;;9.65;100.00
55077;BME280;40971;44.702;11.030;2022-11-15T10:07:20;101649.16;;;10.01;100.00
55077;BME280;40971;44.702;11.030;2022-11-15T10:10:02;101623.88;;;10.03;100.00
55077;BME280;40971;44.702;11.030;2022-11-15T10:12:31;101619.28;;;10.10;100.00
55077;BME280;40971;44.702;11.030;2022-11-15T10:15:06;101570.38;;;9.45;100.00
55077;BME280;40971;44.702;11.030;2022-11-15T10:17:52;101614.00;;;9.88;100.00
55077;BME280;40971;44.702;11.030;2022-11-15T10:20:23;101592.84;;;9.95;100.00
55077;BME280;40971;44.702;11.030;2022-11-15T10:22:56;101570.81;;;9.56;100.00
55077;BME280;40971;44.702;11.030;2022-11-15T10:25:29;101599.72;;;9.98;100.00
55077;BME280;40971;44.702;11.030;2022-11-15T10:28:22;101600.88;;;10.13;100.00
55077;BME280;40971;44.702;11.030;2022-11-15T10:30:53;101541.34;;;9.77;100.00
55077;BME280;40971;44.702;11.030;2022-11-15T10:33:25;101579.34;;;10.08;100.00
55077;BME280;40971;44.702;11.030;2022-11-15T10:46:36;101542.75;;;10.09;100.00
55077;BME280;40971;44.702;11.030;2022-11-15T10:49:22;101487.25;;;9.82;100.00
55077;BME280;40971;44.702;11.030;2022-11-15T10:54:37;101528.41;;;9.98;100.00
55077;BME280;40971;44.702;11.030;2022-11-15T10:57:18;101537.31;;;9.92;100.00
55077;BME280;40971;44.702;11.030;2022-11-15T10:59:56;101526.69;;;9.97;100.00
55077;BME280;40971;44.702;11.030;2022-11-15T11:04:54;101506.25;;;10.08;100.00
55077;BME280;40971;44.702;11.030;2022-11-15T11:07:22;101517.72;;;10.04;100.00
55077;BME280;40971;44.702;11.030;2022-11-15T11:09:57;101505.75;;;10.20;100.00
55077;BME280;40971;44.702;11.030;2022-11-15T11:12:33;101496.06;;;10.23;100.00
55077;BME280;40971;44.702;11.030;2022-11-15T11:15:10;101520.31;;;10.27;100.00
55077;BME280;40971;44.702;11.030;2022-11-15T11:23:05;101508.69;;;10.34;100.00
55077;BME280;40971;44.702;11.030;2022-11-15T11:28:21;101435.19;;;10.23;100.00
55077;BME280;40971;44.702;11.030;2022-11-15T11:31:07;101497.59;;;10.71;100.00
55077;BME280;40971;44.702;11.030;2022-11-15T11:34:03;101491.06;;;10.81;100.00
55077;BME280;40971;44.702;11.030;2022-11-15T11:45:03;101462.69;;;10.52;100.00
55077;BME280;40971;44.702;11.030;2022-11-15T11:47:51;101453.03;;;10.54;100.00
55077;BME280;40971;44.702;11.030;2022-11-15T11:50:25;101451.53;;;10.69;100.00
55077;BME280;40971;44.702;11.030;2022-11-15T11:53:12;101465.78;;;10.82;100.00
55077;BME280;40971;44.702;11.030;2022-11-15T11:55:50;101444.44;;;10.93;100.00
55077;BME280;40971;44.702;11.030;2022-11-15T11:58:38;101447.81;;;10.95;100.00
55077;BME280;40971;44.702;11.030;2022-11-15T12:01:18;101448.06;;;10.89;100.00
55077;BME280;40971;44.702;11.030;2022-11-15T12:08:52;101433.56;;;10.81;100.00
55077;BME280;40971;44.702;11.030;2022-11-15T12:12:27;101454.31;;;11.05;100.00
55077;BME280;40971;44.702;11.030;2022-11-15T12:14:49;101445.44;;;10.89;100.00
55077;BME280;40971;44.702;11.030;2022-11-15T12:17:21;101419.47;;;10.65;100.00
55077;BME280;40971;44.702;11.030;2022-11-15T12:19:48;101428.47;;;10.58;100.00
55077;BME280;40971;44.702;11.030;2022-11-15T12:22:20;101424.16;;;10.37;100.00
55077;BME280;40971;44.702;11.030;2022-11-15T12:25:00;101372.41;;;10.04;100.00
55077;BME280;40971;44.702;11.030;2022-11-15T12:30:00;101408.84;;;10.49;100.00
55077;BME280;40971;44.702;11.030;2022-11-15T12:32:34;101409.81;;;10.47;100.00
55077;BME280;40971;44.702;11.030;2022-11-15T12:35:06;101404.91;;;10.39;100.00
55077;BME280;40971;44.702;11.030;2022-11-15T12:37:49;101407.22;;;10.47;100.00
55077;BME280;40971;44.702;11.030;2022-11-15T12:40:23;101395.78;;;10.49;100.00
55077;BME280;40971;44.702;11.030;2022-11-15T12:42:59;101400.50;;;10.41;100.00
55077;BME280;40971;44.702;11.030;2022-11-15T12:45:36;101389.84;;;10.46;100.00
55077;BME280;40971;44.702;11.030;2022-11-15T13:07:03;101368.03;;;10.86;100.00
55077;BME280;40971;44.702;11.030;2022-11-15T13:12:09;101342.50;;;10.53;100.00
55077;BME280;40971;44.702;11.030;2022-11-15T13:17:44;101358.38;;;10.49;100.00
55077;BME280;40971;44.702;11.030;2022-11-15T13:25:32;101346.63;;;10.39;100.00
55077;BME280;40971;44.702;11.030;2022-11-15T13:30:52;101348.69;;;10.51;100.00
55077;BME280;40971;44.702;11.030;2022-11-15T13:33:36;101341.28;;;10.42;100.00
55077;BME280;40971;44.702;11.030;2022-11-15T13:36:17;101342.66;;;10.30;100.00
55077;BME280;40971;44.702;11.030;2022-11-15T13:38:43;101316.47;;;10.11;100.00
55077;BME280;40971;44.702;11.030;2022-11-15T13:41:21;101290.09;;;9.97;100.00
55077;BME280;40971;44.702;11.030;2022-11-15T13:43:48;101340.53;;;10.18;100.00
55077;BME280;40971;44.702;11.030;2022-11-15T13:46:17;101314.09;;;10.05;100.00
55077;BME280;40971;44.702;11.030;2022-11-15T13:48:46;101271.94;;;9.74;100.00
55077;BME280;40971;44.702;11.030;2022-11-15T13:56:37;101313.09;;;9.87;100.00
55077;BME280;40971;44.702;11.030;2022-11-15T14:02:02;101306.66;;;9.76;100.00
55077;BME280;40971;44.702;11.030;2022-11-15T14:04:30;101291.44;;;9.65;100.00
55077;BME280;40971;44.702;11.030;2022-11-15T14:06:59;101293.78;;;9.71;100.00
55077;BME280;40971;44.702;11.030;2022-11-15T14:09:39;101279.94;;;9.69;100.00
55077;BME280;40971;44.702;11.030;2022-11-15T14:12:34;101245.19;;;9.48;100.00
55077;BME280;40971;44.702;11.030;2022-11-15T14:15:36;101299.34;;;9.84;100.00
55077;BME280;40971;44.702;11.030;2022-11-15T14:18:03;101277.53;;;9.64;100.00
55077;BME280;40971;44.702;11.030;2022-11-15T14:23:02;101292.69;;;9.77;100.00
55077;BME280;40971;44.702;11.030;2022-11-15T14:25:33;101149.19;;;8.95;100.00
55077;BME280;40971;44.702;11.030;2022-11-15T14:28:16;101283.09;;;9.77;100.00
55077;BME280;40971;44.702;11.030;2022-11-15T14:30:55;101221.13;;;9.42;100.00
55077;BME280;40971;44.702;11.030;2022-11-15T14:35:55;101236.19;;;9.55;100.00
55077;BME280;40971;44.702;11.030;2022-11-15T14:38:23;101259.78;;;9.73;100.00
55077;BME280;40971;44.702;11.030;2022-11-15T14:40:49;101221.91;;;9.44;100.00
55077;BME280;40971;44.702;11.030;2022-11-15T14:43:15;101262.59;;;9.68;100.00
55077;BME280;40971;44.702;11.030;2022-11-15T14:45:41;101256.75;;;9.63;100.00
55077;BME280;40971;44.702;11.030;2022-11-15T14:48:07;101261.81;;;9.66;100.00
55077;BME280;40971;44.702;11.030;2022-11-15T14:50:33;101268.75;;;9.67;100.00
55077;BME280;40971;44.702;11.030;2022-11-15T14:52:59;101217.13;;;9.33;100.00
55077;BME280;40971;44.702;11.030;2022-11-15T14:55:27;101272.38;;;9.63;100.00
55077;BME280;40971;44.702;11.030;2022-11-15T14:57:54;101280.34;;;9.60;100.00
55077;BME280;40971;44.702;11.030;2022-11-15T15:00:20;101252.28;;;9.45;100.00
55077;BME280;40971;44.702;11.030;2022-11-15T15:02:48;101279.31;;;9.64;100.00
55077;BME280;40971;44.702;11.030;2022-11-15T15:05:19;101224.94;;;9.33;100.00
55077;BME280;40971;44.702;11.030;2022-11-15T15:07:45;101257.44;;;9.46;100.00